createdAt,value
2019-05-17T00:02:17.493Z,49.71
2019-05-17T00:04:47.078Z,50.09
2019-05-17T00:07:16.831Z,50.13
2019-05-17T00:09:47.869Z,50.11
2019-05-17T00:12:17.770Z,50.07
2019-05-17T00:14:47.392Z,50.29
2019-05-17T00:17:17.334Z,50.25
2019-05-17T00:19:47.123Z,49.92
2019-05-17T00:22:16.920Z,50.62
2019-05-17T00:24:47.711Z,51.22
2019-05-17T00:27:17.496Z,50.43
2019-05-17T00:29:46.877Z,50.88
2019-05-17T00:32:17.073Z,50.52
2019-05-17T00:34:47.082Z,50.32
2019-05-17T00:37:17.334Z,50.94
2019-05-17T00:39:47.212Z,50.39
2019-05-17T00:42:17.211Z,50.95
2019-05-17T00:44:47.369Z,50.63
2019-05-17T00:47:17.181Z,50.71
2019-05-17T00:49:46.888Z,50.90
2019-05-17T00:52:16.805Z,52.53
2019-05-17T00:54:46.915Z,53.53
2019-05-17T00:57:16.651Z,53.35
2019-05-17T00:59:47.552Z,53.32
2019-05-17T01:02:17.082Z,53.51
2019-05-17T01:04:47.621Z,53.76
2019-05-17T01:07:17.700Z,53.63
2019-05-17T01:09:47.386Z,53.77
2019-05-17T01:12:16.691Z,53.42
2019-05-17T01:14:46.632Z,53.47
2019-05-17T01:17:16.622Z,53.63
2019-05-17T01:19:47.204Z,53.46
2019-05-17T01:22:16.987Z,53.21
2019-05-17T01:24:46.672Z,53.74
2019-05-17T01:27:17.222Z,53.88
2019-05-17T01:29:46.689Z,54.62
2019-05-17T01:32:17.186Z,55.24
2019-05-17T01:34:46.968Z,56.05
2019-05-17T01:37:17.369Z,56.09
2019-05-17T01:39:46.926Z,56.53
2019-05-17T01:42:17.208Z,56.56
2019-05-17T01:44:47.238Z,56.77
2019-05-17T01:47:16.743Z,56.46
2019-05-17T01:49:46.994Z,56.57
2019-05-17T01:52:16.884Z,56.94
2019-05-17T01:54:46.940Z,57.55
2019-05-17T01:57:16.967Z,56.81
2019-05-17T01:59:46.888Z,57.27
2019-05-17T02:02:18.749Z,57.20
2019-05-17T02:04:50.055Z,57.42
2019-05-17T02:07:19.357Z,57.03
2019-05-17T02:09:48.618Z,57.44
2019-05-17T02:12:18.414Z,57.31
2019-05-17T02:14:47.741Z,57.50
2019-05-17T02:17:17.467Z,57.79
2019-05-17T02:19:47.219Z,58.00
2019-05-17T02:22:16.827Z,58.12
2019-05-17T02:24:46.490Z,59.06
2019-05-17T02:27:16.136Z,62.50
2019-05-17T02:29:45.418Z,65.80
2019-05-17T02:32:14.748Z,65.53
2019-05-17T02:34:44.093Z,68.54
2019-05-17T02:37:13.763Z,69.30
2019-05-17T02:39:57.115Z,69.70
2019-05-17T02:42:14.542Z,70.17
2019-05-17T02:44:44.020Z,67.79
2019-05-17T02:47:13.477Z,68.28
2019-05-17T02:49:43.318Z,67.03
2019-05-17T02:52:12.861Z,64.87
2019-05-17T02:54:43.788Z,64.18
2019-05-17T02:57:14.188Z,63.43
2019-05-17T02:59:43.775Z,62.85
2019-05-17T03:02:13.094Z,63.39
2019-05-17T03:04:43.406Z,60.62
2019-05-17T03:07:13.775Z,59.64
2019-05-17T03:09:43.363Z,59.47
2019-05-17T03:12:13.120Z,58.65
2019-05-17T03:14:43.332Z,59.28
2019-05-17T03:17:14.152Z,59.43
2019-05-17T03:19:43.843Z,59.68
2019-05-17T03:22:13.438Z,59.11
2019-05-17T03:24:43.942Z,59.85
2019-05-17T03:27:13.955Z,59.30
2019-05-17T03:29:43.556Z,59.90
2019-05-17T03:32:17.139Z,58.61
2019-05-17T03:34:46.765Z,58.82
2019-05-17T03:37:16.693Z,59.06
2019-05-17T03:39:46.210Z,58.74
2019-05-17T03:42:15.700Z,59.00
2019-05-17T03:44:45.001Z,58.79
2019-05-17T03:47:14.321Z,59.26
2019-05-17T03:49:44.020Z,59.20
2019-05-17T03:52:13.771Z,59.60
2019-05-17T03:54:43.279Z,59.74
2019-05-17T03:57:13.514Z,60.04
2019-05-17T03:59:43.188Z,59.67
2019-05-17T04:02:12.597Z,60.00
2019-05-17T04:04:42.878Z,60.12
2019-05-17T04:07:12.957Z,60.48
2019-05-17T04:09:43.752Z,59.49
2019-05-17T04:12:13.858Z,59.70
2019-05-17T04:14:43.197Z,60.69
2019-05-17T04:17:13.272Z,61.20
2019-05-17T04:19:43.030Z,61.40
2019-05-17T04:22:13.914Z,61.14
2019-05-17T04:24:43.983Z,60.75
2019-05-17T04:27:13.867Z,61.81
2019-05-17T04:29:43.323Z,61.18
2019-05-17T04:32:13.140Z,60.96
2019-05-17T04:34:43.763Z,60.91
2019-05-17T04:37:13.247Z,60.41
2019-05-17T04:39:43.215Z,61.10
2019-05-17T04:42:13.642Z,60.65
2019-05-17T04:44:43.393Z,60.53
2019-05-17T04:47:13.451Z,59.69
2019-05-17T04:49:43.964Z,60.19
2019-05-17T04:52:13.903Z,60.04
2019-05-17T04:54:43.289Z,60.06
2019-05-17T04:57:13.289Z,59.33
2019-05-17T04:59:43.452Z,60.16
2019-05-17T05:02:13.413Z,60.10
2019-05-17T05:04:43.745Z,59.42
2019-05-17T05:07:13.896Z,58.97
2019-05-17T05:09:43.631Z,58.56
2019-05-17T05:12:13.005Z,58.47
2019-05-17T05:14:43.133Z,58.77
2019-05-17T05:17:13.011Z,58.77
2019-05-17T05:19:42.503Z,58.43
2019-05-17T05:22:13.484Z,59.17
2019-05-17T05:24:42.928Z,58.43
2019-05-17T05:27:12.307Z,58.81
2019-05-17T05:29:41.741Z,58.43
2019-05-17T05:32:11.796Z,59.52
2019-05-17T05:34:42.956Z,60.17
2019-05-17T05:37:12.709Z,61.39
2019-05-17T05:39:41.990Z,62.48
2019-05-17T05:42:13.828Z,65.03
2019-05-17T05:44:42.565Z,64.47
2019-05-17T05:47:11.852Z,64.83
2019-05-17T05:49:42.577Z,64.42
2019-05-17T05:52:12.630Z,63.17
2019-05-17T05:54:41.925Z,63.33
2019-05-17T05:57:12.652Z,62.87
2019-05-17T05:59:42.586Z,63.49
2019-05-17T06:02:12.380Z,64.11
2019-05-17T06:04:42.411Z,65.75
2019-05-17T06:07:12.902Z,66.05
2019-05-17T06:09:42.476Z,67.44
2019-05-17T06:12:23.413Z,67.91
2019-05-17T06:14:43.233Z,70.03
2019-05-17T06:17:12.724Z,71.66
2019-05-17T06:19:42.282Z,74.62
2019-05-17T06:22:12.126Z,76.06
2019-05-17T06:24:42.549Z,77.74
2019-05-17T06:27:12.430Z,77.66
2019-05-17T06:29:41.722Z,78.62
2019-05-17T06:32:11.910Z,78.94
2019-05-17T06:34:42.270Z,78.84
2019-05-17T06:37:12.920Z,78.08
2019-05-17T06:39:43.060Z,78.80
2019-05-17T06:42:12.697Z,78.39
2019-05-17T06:44:41.980Z,78.18
2019-05-17T06:47:12.020Z,77.34
2019-05-17T06:49:42.373Z,76.63
2019-05-17T06:52:12.031Z,77.06
2019-05-17T06:54:41.749Z,75.22
2019-05-17T06:57:12.784Z,73.87
2019-05-17T06:59:42.476Z,74.40
2019-05-17T07:02:11.978Z,74.94
2019-05-17T07:04:41.430Z,76.16
2019-05-17T07:07:30.397Z,75.58
2019-05-17T07:10:00.944Z,76.14
2019-05-17T07:12:30.885Z,76.75
2019-05-17T07:15:01.725Z,77.68
2019-05-17T07:17:31.608Z,79.11
2019-05-17T07:20:00.895Z,79.34
2019-05-17T07:22:30.229Z,82.29
2019-05-17T07:24:59.947Z,82.24
2019-05-17T07:27:41.121Z,83.92
2019-05-17T07:30:00.254Z,84.58
2019-05-17T07:32:29.871Z,84.27
2019-05-17T07:35:00.115Z,85.29
2019-05-17T07:37:30.281Z,86.84
2019-05-17T07:40:04.771Z,87.31
2019-05-17T07:42:31.105Z,88.24
2019-05-17T07:45:00.686Z,88.14
2019-05-17T07:47:30.424Z,88.95
2019-05-17T07:50:01.108Z,89.75
2019-05-17T07:52:30.628Z,89.58
2019-05-17T07:55:02.319Z,90.20
2019-05-17T07:57:31.204Z,90.97
2019-05-17T08:00:00.476Z,90.81
2019-05-17T08:02:30.740Z,90.13
2019-05-17T08:05:00.693Z,91.10
2019-05-17T08:07:30.299Z,91.51
2019-05-17T08:10:00.313Z,92.18
2019-05-17T08:12:30.405Z,92.27
2019-05-17T08:15:00.068Z,92.44
2019-05-17T08:17:30.388Z,92.19
2019-05-17T08:20:00.633Z,92.64
2019-05-17T08:22:30.198Z,92.83
2019-05-17T08:25:00.187Z,92.98
2019-05-17T08:27:29.916Z,92.66
2019-05-17T08:29:59.908Z,93.09
2019-05-17T08:32:31.597Z,93.61
2019-05-17T08:35:00.631Z,93.82
2019-05-17T08:37:30.424Z,93.11
2019-05-17T08:40:00.224Z,93.22
2019-05-17T08:42:30.089Z,93.29
2019-05-17T08:45:00.687Z,93.85
2019-05-17T08:47:30.264Z,94.37
2019-05-17T08:50:00.500Z,94.29
2019-05-17T08:52:30.080Z,94.75
2019-05-17T08:55:00.439Z,95.16
2019-05-17T08:57:30.347Z,95.22
2019-05-17T09:00:00.943Z,95.22
2019-05-17T09:02:30.497Z,95.77
2019-05-17T09:05:00.452Z,95.64
2019-05-17T09:07:30.345Z,95.68
2019-05-17T09:10:01.748Z,95.07
2019-05-17T09:12:31.099Z,94.98
2019-05-17T09:15:00.674Z,95.14
2019-05-17T09:17:30.122Z,95.26
2019-05-17T09:20:00.644Z,95.50
2019-05-17T09:22:30.620Z,95.56
2019-05-17T09:25:00.170Z,96.45
2019-05-17T09:27:30.059Z,96.53
2019-05-17T09:30:00.079Z,97.09
2019-05-17T09:32:29.843Z,97.35
2019-05-17T09:35:00.416Z,97.19
2019-05-17T09:37:30.506Z,97.47
2019-05-17T09:40:00.167Z,97.55
2019-05-17T09:42:30.058Z,97.95
2019-05-17T09:45:00.336Z,97.70
2019-05-17T09:47:30.179Z,97.77
2019-05-17T09:50:00.465Z,97.96
2019-05-17T09:52:29.975Z,97.49
2019-05-17T09:55:00.678Z,97.08
2019-05-17T09:57:29.990Z,96.83
2019-05-17T10:00:00.161Z,97.13
2019-05-17T10:02:29.892Z,97.45
2019-05-17T10:04:59.810Z,97.65
2019-05-17T10:07:29.843Z,97.57
2019-05-17T10:09:59.862Z,97.71
2019-05-17T10:12:29.226Z,98.08
2019-05-17T10:15:00.449Z,98.28
2019-05-17T10:17:29.681Z,98.21
2019-05-17T10:19:59.957Z,98.68
2019-05-17T10:22:30.350Z,98.79
2019-05-17T10:25:00.405Z,98.90
2019-05-17T10:27:30.227Z,99.15
2019-05-17T10:29:59.590Z,99.08
2019-05-17T10:32:30.902Z,99.20
2019-05-17T10:35:00.450Z,98.90
2019-05-17T10:37:30.401Z,98.90
2019-05-17T10:39:59.769Z,98.77
2019-05-17T10:42:30.593Z,98.91
2019-05-17T10:45:00.249Z,98.64
2019-05-17T10:47:30.224Z,98.62
2019-05-17T10:49:59.560Z,98.53
2019-05-17T10:52:30.019Z,98.88
2019-05-17T10:55:00.032Z,98.95
2019-05-17T10:57:30.335Z,98.63
2019-05-17T10:59:59.703Z,98.65
2019-05-17T11:02:30.438Z,98.58
2019-05-17T11:05:01.012Z,98.53
2019-05-17T11:07:30.304Z,98.47
2019-05-17T11:10:00.473Z,98.28
2019-05-17T11:12:30.376Z,98.61
2019-05-17T11:15:10.421Z,98.59
2019-05-17T11:17:31.200Z,98.61
2019-05-17T11:20:00.501Z,98.70
2019-05-17T11:22:29.753Z,98.79
2019-05-17T11:24:59.172Z,98.25
2019-05-17T11:27:28.482Z,98.31
2019-05-17T11:29:57.777Z,97.75
2019-05-17T11:32:27.208Z,97.78
2019-05-17T11:34:56.541Z,97.66
2019-05-17T11:37:25.861Z,97.25
2019-05-17T11:39:55.228Z,97.64
2019-05-17T11:42:24.530Z,97.69
2019-05-17T11:44:53.813Z,97.39
2019-05-17T11:47:23.300Z,97.34
2019-05-17T11:49:52.609Z,97.22
2019-05-17T11:52:21.895Z,97.43
2019-05-17T11:54:51.375Z,97.60
2019-05-17T11:57:20.739Z,97.64
2019-05-17T11:59:50.023Z,97.86
2019-05-17T12:02:21.451Z,97.43
2019-05-17T12:04:50.462Z,97.80
2019-05-17T12:07:20.217Z,97.68
2019-05-17T12:09:49.666Z,97.88
2019-05-17T12:12:18.972Z,97.72
2019-05-17T12:14:48.282Z,98.20
2019-05-17T12:17:17.643Z,98.22
2019-05-17T12:19:46.937Z,98.33
2019-05-17T12:22:16.309Z,98.34
2019-05-17T12:24:45.741Z,98.72
2019-05-17T12:27:15.136Z,99.00
2019-05-17T12:29:44.433Z,99.08
2019-05-17T12:32:16.782Z,99.22
2019-05-17T12:34:45.139Z,99.27
2019-05-17T12:37:14.425Z,99.04
2019-05-17T12:39:43.794Z,98.77
2019-05-17T12:42:13.332Z,98.29
2019-05-17T12:44:42.619Z,98.43
2019-05-17T12:47:11.968Z,98.59
2019-05-17T12:49:41.441Z,98.72
2019-05-17T12:52:10.724Z,98.18
2019-05-17T12:54:40.167Z,98.23
2019-05-17T12:57:09.851Z,98.60
2019-05-17T12:59:39.148Z,98.93
2019-05-17T13:02:12.089Z,98.77
2019-05-17T13:04:39.765Z,98.36
2019-05-17T13:07:09.074Z,98.38
2019-05-17T13:09:38.441Z,98.50
2019-05-17T13:12:07.930Z,98.97
2019-05-17T13:14:37.284Z,98.83
2019-05-17T13:17:06.709Z,99.00
2019-05-17T13:19:36.516Z,99.00
2019-05-17T13:22:06.074Z,98.93
2019-05-17T13:24:35.444Z,98.81
2019-05-17T13:27:05.126Z,98.61
2019-05-17T13:29:34.444Z,98.69
2019-05-17T13:32:03.789Z,98.94
2019-05-17T13:34:33.333Z,98.83
2019-05-17T13:37:02.627Z,98.83
2019-05-17T13:39:32.189Z,98.93
2019-05-17T13:42:01.691Z,98.79
2019-05-17T13:44:30.955Z,98.87
2019-05-17T13:47:00.313Z,98.94
2019-05-17T13:49:29.799Z,98.96
2019-05-17T13:51:59.078Z,99.04
2019-05-17T13:54:28.397Z,99.13
2019-05-17T13:56:58.000Z,99.37
2019-05-17T13:59:27.440Z,99.39
2019-05-17T14:01:56.923Z,99.10
2019-05-17T14:04:26.824Z,99.32
2019-05-17T14:06:56.348Z,99.26
2019-05-17T14:09:25.814Z,99.35
2019-05-17T14:11:55.236Z,99.39
2019-05-17T14:14:24.745Z,99.61
2019-05-17T14:16:54.434Z,99.31
2019-05-17T14:19:25.198Z,99.15
2019-05-17T14:21:54.560Z,99.14
2019-05-17T14:24:23.873Z,99.53
2019-05-17T14:26:53.286Z,99.16
2019-05-17T14:29:22.715Z,99.64
2019-05-17T14:31:52.086Z,99.66
2019-05-17T14:34:21.605Z,99.57
2019-05-17T14:36:50.956Z,99.70
2019-05-17T14:39:20.288Z,99.96
2019-05-17T14:41:50.025Z,99.88
2019-05-17T14:44:19.536Z,99.96
2019-05-17T14:46:48.938Z,99.87
2019-05-17T14:49:18.550Z,99.72
2019-05-17T14:51:48.013Z,99.86
2019-05-17T14:54:17.329Z,100.00
2019-05-17T14:56:46.994Z,100.00
2019-05-17T14:59:16.361Z,100.00
2019-05-17T15:01:45.710Z,99.98
2019-05-17T15:04:15.405Z,100.00
2019-05-17T15:06:44.729Z,100.00
2019-05-17T15:09:14.021Z,100.00
2019-05-17T15:11:43.378Z,100.00
2019-05-17T15:14:12.759Z,100.00
2019-05-17T15:16:42.088Z,100.00
2019-05-17T15:19:11.711Z,99.97
2019-05-17T15:21:41.336Z,99.40
2019-05-17T15:24:10.591Z,99.59
2019-05-17T15:26:40.306Z,99.66
2019-05-17T15:29:09.644Z,99.62
2019-05-17T15:31:38.911Z,99.60
2019-05-17T15:34:08.619Z,99.77
2019-05-17T15:36:37.994Z,99.81
2019-05-17T15:39:07.552Z,99.71
2019-05-17T15:41:37.054Z,99.64
2019-05-17T15:44:06.389Z,99.49
2019-05-17T15:46:35.629Z,99.63
2019-05-17T15:49:04.950Z,99.57
2019-05-17T15:51:34.400Z,99.46
2019-05-17T15:54:03.737Z,99.66
2019-05-17T15:56:33.293Z,99.71
2019-05-17T15:59:02.748Z,99.76
2019-05-17T16:01:32.088Z,99.70
2019-05-17T16:04:01.472Z,99.84
2019-05-17T16:06:30.838Z,100.00
2019-05-17T16:09:00.191Z,100.00
2019-05-17T16:11:29.631Z,100.00
2019-05-17T16:13:59.008Z,99.92
2019-05-17T16:16:28.260Z,99.70
2019-05-17T16:18:57.689Z,100.00
2019-05-17T16:21:26.978Z,100.00
2019-05-17T16:23:56.290Z,100.00
2019-05-17T16:26:26.229Z,100.00
2019-05-17T16:28:56.030Z,100.00
2019-05-17T16:31:25.360Z,100.00
2019-05-17T16:33:55.230Z,100.00
2019-05-17T16:36:24.770Z,100.00
2019-05-17T16:38:54.130Z,100.00
2019-05-17T16:41:23.978Z,100.00
2019-05-17T16:43:53.355Z,100.00
2019-05-17T16:46:22.665Z,99.95
2019-05-17T16:48:52.282Z,100.00
2019-05-17T16:51:21.762Z,100.00
2019-05-17T16:53:51.095Z,100.00
2019-05-17T16:56:20.352Z,99.33
2019-05-17T16:58:49.885Z,99.85
2019-05-17T17:01:19.146Z,100.00
2019-05-17T17:03:48.810Z,100.00
2019-05-17T17:06:18.251Z,100.00
2019-05-17T17:08:47.831Z,100.00
2019-05-17T17:11:17.330Z,100.00
2019-05-17T17:13:46.678Z,100.00
2019-05-17T17:16:15.955Z,99.92
2019-05-17T17:18:45.538Z,100.00
2019-05-17T17:21:14.941Z,100.00
2019-05-17T17:23:44.221Z,99.91
2019-05-17T17:26:13.487Z,100.00
2019-05-17T17:28:42.803Z,100.00
2019-05-17T17:31:16.272Z,100.00
2019-05-17T17:33:45.675Z,100.00
2019-05-17T17:36:15.345Z,100.00
2019-05-17T17:38:44.822Z,100.00
2019-05-17T17:41:14.180Z,100.00
2019-05-17T17:43:57.521Z,100.00
2019-05-17T17:46:14.643Z,100.00
2019-05-17T17:48:45.919Z,100.00
2019-05-17T17:51:15.237Z,100.00
2019-05-17T17:53:44.550Z,100.00
2019-05-17T17:56:13.865Z,100.00
2019-05-17T17:58:43.357Z,100.00
2019-05-17T18:01:12.722Z,100.00
2019-05-17T18:03:42.099Z,100.00
2019-05-17T18:06:11.787Z,100.00
2019-05-17T18:08:41.072Z,100.00
2019-05-17T18:11:10.343Z,100.00
2019-05-17T18:13:39.839Z,100.00
2019-05-17T18:16:09.156Z,100.00
2019-05-17T18:18:38.483Z,100.00
2019-05-17T18:21:08.105Z,100.00
2019-05-17T18:23:37.369Z,100.00
2019-05-17T18:26:06.817Z,100.00
2019-05-17T18:28:36.351Z,100.00
2019-05-17T18:31:05.773Z,100.00
2019-05-17T18:33:35.005Z,100.00
2019-05-17T18:36:04.478Z,100.00
2019-05-17T18:38:34.899Z,100.00
2019-05-17T18:41:04.292Z,100.00
2019-05-17T18:43:34.065Z,100.00
2019-05-17T18:46:03.414Z,100.00
2019-05-17T18:48:32.859Z,100.00
2019-05-17T18:51:02.291Z,100.00
2019-05-17T18:53:31.561Z,100.00
2019-05-17T18:56:00.858Z,100.00
2019-05-17T18:58:30.265Z,100.00
2019-05-17T19:00:59.895Z,100.00
2019-05-17T19:03:29.339Z,100.00
2019-05-17T19:08:27.579Z,100.00
2019-05-17T19:10:56.952Z,100.00
2019-05-17T19:13:26.447Z,100.00
2019-05-17T19:15:55.883Z,100.00
2019-05-17T19:18:25.168Z,100.00
2019-05-17T19:20:54.481Z,100.00
2019-05-17T19:23:25.878Z,100.00
2019-05-17T19:25:55.132Z,100.00
2019-05-17T19:28:24.516Z,100.00
2019-05-17T19:30:54.065Z,100.00
2019-05-17T19:33:23.365Z,100.00
2019-05-17T19:35:52.627Z,100.00
2019-05-17T19:38:22.138Z,100.00
2019-05-17T19:40:51.466Z,100.00
2019-05-17T19:43:20.820Z,100.00
2019-05-17T19:45:50.416Z,100.00
2019-05-17T19:48:20.007Z,100.00
2019-05-17T19:50:49.430Z,100.00
2019-05-17T19:53:19.145Z,100.00
2019-05-17T19:55:48.435Z,100.00
2019-05-17T19:58:17.699Z,100.00
2019-05-17T20:00:47.302Z,100.00
2019-05-17T20:03:16.635Z,100.00
2019-05-17T20:05:45.942Z,100.00
2019-05-17T20:08:15.546Z,100.00
2019-05-17T20:10:44.850Z,100.00
2019-05-17T20:13:14.224Z,100.00
2019-05-17T20:15:43.908Z,100.00
2019-05-17T20:18:13.264Z,100.00
2019-05-17T20:20:42.594Z,100.00
2019-05-17T20:23:12.326Z,100.00
2019-05-17T20:25:41.617Z,100.00
2019-05-17T20:28:10.928Z,100.00
2019-05-17T20:30:40.353Z,100.00
2019-05-17T20:33:09.612Z,100.00
2019-05-17T20:35:38.960Z,100.00
2019-05-17T20:38:08.638Z,100.00
2019-05-17T20:40:37.933Z,100.00
2019-05-17T20:43:07.272Z,100.00
2019-05-17T20:45:36.814Z,100.00
2019-05-17T20:48:06.069Z,100.00
2019-05-17T20:50:35.405Z,100.00
2019-05-17T20:53:17.959Z,100.00
2019-05-17T20:55:36.160Z,100.00
2019-05-17T20:58:05.747Z,100.00
2019-05-17T21:00:35.281Z,100.00
2019-05-17T21:03:04.644Z,100.00
2019-05-17T21:05:34.154Z,100.00
2019-05-17T21:08:03.701Z,100.00
2019-05-17T21:10:33.161Z,100.00
2019-05-17T21:13:02.479Z,100.00
2019-05-17T21:15:32.230Z,100.00
2019-05-17T21:18:01.573Z,100.00
2019-05-17T21:20:31.284Z,100.00
2019-05-17T21:23:00.886Z,100.00
2019-05-17T21:25:30.218Z,100.00
2019-05-17T21:27:59.572Z,100.00
2019-05-17T21:30:29.107Z,100.00
2019-05-17T21:32:58.380Z,100.00
2019-05-17T21:35:27.679Z,100.00
2019-05-17T21:37:57.316Z,100.00
2019-05-17T21:40:26.644Z,100.00
2019-05-17T21:42:56.004Z,100.00
2019-05-17T21:45:25.509Z,100.00
2019-05-17T21:47:54.786Z,100.00
2019-05-17T21:50:24.082Z,100.00
2019-05-17T21:52:53.676Z,100.00
2019-05-17T21:55:23.021Z,100.00
2019-05-17T21:57:52.326Z,100.00
2019-05-17T22:01:07.483Z,100.00
2019-05-17T22:03:36.762Z,100.00
2019-05-17T22:06:06.064Z,100.00
2019-05-17T22:08:35.771Z,100.00
2019-05-17T22:11:05.285Z,100.00
2019-05-17T22:13:34.592Z,100.00
2019-05-17T22:16:18.558Z,100.00
2019-05-17T22:18:35.361Z,100.00
2019-05-17T22:21:04.642Z,100.00
2019-05-17T22:23:34.003Z,100.00
2019-05-17T22:26:03.342Z,100.00
2019-05-17T22:28:32.604Z,100.00
2019-05-17T22:31:02.525Z,100.00
2019-05-17T22:33:31.844Z,100.00
2019-05-17T22:36:01.140Z,100.00
2019-05-17T22:38:30.523Z,100.00
2019-05-17T22:40:59.866Z,100.00
2019-05-17T22:43:29.162Z,100.00
2019-05-17T22:45:58.570Z,100.00
2019-05-17T22:48:27.882Z,100.00
2019-05-17T22:50:57.251Z,100.00
2019-05-17T22:53:26.816Z,100.00
2019-05-17T22:55:56.109Z,100.00
2019-05-17T22:58:25.419Z,100.00
2019-05-17T23:00:55.008Z,100.00
2019-05-17T23:03:24.315Z,100.00
2019-05-17T23:05:53.634Z,100.00
2019-05-17T23:08:23.135Z,100.00
2019-05-17T23:10:52.422Z,100.00
2019-05-17T23:13:21.769Z,100.00
2019-05-17T23:16:05.963Z,100.00
2019-05-17T23:18:35.491Z,100.00
2019-05-17T23:21:04.927Z,100.00
2019-05-17T23:23:34.428Z,100.00
2019-05-17T23:26:04.123Z,100.00
2019-05-17T23:28:33.625Z,100.00
2019-05-17T23:31:03.246Z,100.00
2019-05-17T23:33:32.565Z,100.00
2019-05-17T23:36:01.985Z,100.00
2019-05-17T23:38:31.512Z,100.00
2019-05-17T23:41:00.809Z,100.00
2019-05-17T23:43:30.160Z,100.00
2019-05-17T23:45:59.507Z,100.00
2019-05-17T23:48:28.788Z,100.00
2019-05-17T23:50:58.139Z,100.00
2019-05-17T23:53:27.682Z,100.00
2019-05-17T23:55:57.005Z,100.00
2019-05-17T23:58:26.271Z,100.00
